Time;durP1;ratioP1;P1;durP2;ratioP2;P2;SDS_P1;SDS_P2;PMS_P1;PMS_P2;Temp;Humidity;BMP_temperature;BMP_pressure;BME280_temperature;BME280_humidity;BME280_pressure;Samples;Min_cycle;Max_cycle;Signal;HPM_P1;HPM_P2
2021/12/12 00:00:59;;;;;;;5.22;1.95;;;11.10;99.90;;;;;;4883184;29;20108;-86
2021/12/12 00:03:36;;;;;;;9.82;1.85;;;11.10;99.90;;;;;;4899437;29;20052;-86
2021/12/12 00:06:06;;;;;;;6.85;1.92;;;11.10;99.90;;;;;;4899864;29;20053;-86
2021/12/12 00:08:33;;;;;;;5.45;1.88;;;11.10;99.90;;;;;;4899781;29;20050;-87
2021/12/12 00:11:04;;;;;;;4.00;1.77;;;11.10;99.90;;;;;;4898603;29;20092;-86
2021/12/12 00:13:35;;;;;;;6.43;1.73;;;11.10;99.90;;;;;;4899470;29;20081;-86
2021/12/12 00:16:04;;;;;;;4.15;1.60;;;11.10;99.90;;;;;;4899543;29;20456;-86
2021/12/12 00:18:32;;;;;;;8.50;1.98;;;11.10;99.90;;;;;;4899461;29;20468;-85
2021/12/12 00:20:59;;;;;;;6.72;2.65;;;11.10;99.90;;;;;;4899525;29;20124;-86
2021/12/12 00:23:26;;;;;;;4.60;1.63;;;11.00;99.90;;;;;;4899486;29;20081;-86
2021/12/12 00:25:56;;;;;;;7.38;2.17;;;11.10;99.90;;;;;;4899423;29;20515;-86
2021/12/12 00:28:23;;;;;;;4.63;2.13;;;11.00;99.90;;;;;;4899666;29;20053;-86
2021/12/12 00:30:52;;;;;;;4.20;1.40;;;11.10;99.90;;;;;;4899460;29;20053;-86
2021/12/12 00:33:21;;;;;;;6.15;1.70;;;11.20;99.90;;;;;;4900250;29;20044;-86
2021/12/12 00:35:49;;;;;;;6.68;1.58;;;11.20;99.90;;;;;;4899366;29;20117;-86
2021/12/12 00:38:21;;;;;;;5.50;1.67;;;11.20;99.90;;;;;;4899396;29;20059;-86
2021/12/12 00:40:52;;;;;;;7.03;1.70;;;11.20;99.90;;;;;;4898820;29;20058;-86
2021/12/12 00:43:26;;;;;;;4.45;1.90;;;11.10;99.90;;;;;;4899368;29;20049;-86
2021/12/12 00:45:56;;;;;;;4.25;1.50;;;11.10;99.90;;;;;;4899070;29;20080;-86
2021/12/12 00:48:25;;;;;;;5.68;2.58;;;11.10;99.90;;;;;;4898753;29;20105;-86
2021/12/12 00:50:52;;;;;;;;;;;11.10;99.90;;;;;;4899071;29;20077;-86
2021/12/12 00:53:22;;;;;;;15.00;3.15;;;11.10;99.90;;;;;;4899159;29;19923;-86
2021/12/12 00:55:51;;;;;;;4.15;1.77;;;11.10;99.90;;;;;;4898632;29;20143;-86
2021/12/12 00:58:19;;;;;;;7.22;2.08;;;11.00;99.90;;;;;;4899011;29;20052;-86
2021/12/12 01:00:51;;;;;;;6.03;3.08;;;11.00;99.90;;;;;;4898944;29;20077;-86
2021/12/12 01:03:20;;;;;;;5.95;3.22;;;11.00;99.90;;;;;;4882046;29;20048;-86
2021/12/12 01:05:50;;;;;;;4.60;2.22;;;11.00;99.90;;;;;;4898947;29;20521;-87
2021/12/12 01:08:18;;;;;;;4.07;2.28;;;11.00;99.90;;;;;;4898921;29;20049;-84
2021/12/12 01:10:48;;;;;;;10.98;2.03;;;11.00;99.90;;;;;;4897995;29;20064;-85
2021/12/12 01:13:16;;;;;;;5.90;2.20;;;10.90;99.90;;;;;;4898825;29;20112;-84
2021/12/12 01:15:50;;;;;;;7.32;3.03;;;11.00;99.90;;;;;;4898466;29;20056;-85
2021/12/12 01:18:22;;;;;;;5.35;2.88;;;10.90;99.90;;;;;;4881754;29;20051;-85
2021/12/12 01:20:55;;;;;;;5.88;2.33;;;10.90;99.90;;;;;;4898884;29;20048;-85
2021/12/12 01:23:26;;;;;;;7.90;2.78;;;10.90;99.90;;;;;;4902232;29;20060;-85
2021/12/12 01:25:54;;;;;;;7.80;2.75;;;10.90;99.90;;;;;;4902578;29;20084;-85
2021/12/12 01:28:24;;;;;;;5.15;2.70;;;10.90;99.90;;;;;;4902493;29;20045;-84
2021/12/12 01:30:53;;;;;;;4.82;2.67;;;10.90;99.90;;;;;;4902385;29;20052;-85
2021/12/12 01:33:32;;;;;;;9.68;3.13;;;10.80;99.90;;;;;;4901786;29;20048;-85
2021/12/12 01:36:01;;;;;;;6.40;3.05;;;10.80;99.90;;;;;;4902140;29;20085;-85
2021/12/12 01:41:13;;;;;;;7.47;2.67;;;10.80;99.90;;;;;;4902030;29;20476;-85
2021/12/12 01:43:44;;;;;;;7.63;2.92;;;10.80;99.90;;;;;;4901674;29;20088;-85
2021/12/12 01:46:19;;;;;;;5.60;2.85;;;10.80;99.90;;;;;;4901572;29;20124;-85
2021/12/12 01:48:52;;;;;;;5.45;2.70;;;10.80;99.90;;;;;;4901417;29;20096;-85
2021/12/12 01:51:21;;;;;;;6.72;3.38;;;10.80;99.90;;;;;;4901235;29;20100;-85
2021/12/12 01:53:52;;;;;;;8.65;3.58;;;10.90;99.90;;;;;;4901336;29;20112;-85
2021/12/12 01:56:22;;;;;;;11.95;3.63;;;10.90;99.90;;;;;;4902172;29;20096;-85
2021/12/12 01:58:54;;;;;;;5.65;2.92;;;10.40;99.90;;;;;;4902213;29;20055;-85
2021/12/12 02:01:24;;;;;;;6.85;2.90;;;10.80;99.90;;;;;;4902244;29;20052;-85
2021/12/12 02:03:59;;;;;;;10.25;3.38;;;10.80;99.90;;;;;;4902032;29;20052;-85
2021/12/12 02:06:29;;;;;;;10.52;3.65;;;10.70;99.90;;;;;;4901944;29;20464;-85
2021/12/12 02:08:57;;;;;;;7.43;3.50;;;10.70;99.90;;;;;;4901636;29;20088;-85
2021/12/12 02:11:27;;;;;;;6.88;3.40;;;10.70;99.90;;;;;;4901628;29;20052;-85
2021/12/12 02:13:57;;;;;;;8.30;3.50;;;10.70;99.90;;;;;;4901630;29;20056;-85
2021/12/12 02:16:27;;;;;;;7.22;3.72;;;10.80;99.90;;;;;;4901681;29;20052;-85
2021/12/12 02:18:58;;;;;;;8.10;3.53;;;10.80;99.90;;;;;;4901325;29;20064;-85
2021/12/12 02:21:35;;;;;;;6.38;3.92;;;10.80;99.90;;;;;;4902096;29;20060;-85
2021/12/12 02:35:04;;;;;;;8.77;4.00;;;10.90;99.90;;;;;;4901543;29;20054;-85
2021/12/12 02:35:41;;;;;;;7.23;5.37;;;10.90;99.90;;;;;;4901035;29;20060;-85
2021/12/12 02:38:09;;;;;;;11.52;5.95;;;11.00;99.90;;;;;;4901148;29;20099;-84
2021/12/12 02:40:42;;;;;;;8.23;5.80;;;11.20;99.90;;;;;;4900662;29;20056;-85
2021/12/12 02:43:12;;;;;;;8.18;4.97;;;11.30;99.90;;;;;;4901062;29;20068;-85
2021/12/12 02:45:39;;;;;;;8.60;5.82;;;11.20;99.90;;;;;;4901125;29;20052;-85
2021/12/12 02:48:09;;;;;;;10.55;5.70;;;11.20;99.90;;;;;;4901212;29;20059;-84
2021/12/12 02:50:40;;;;;;;7.63;4.82;;;11.20;99.90;;;;;;4900330;29;20057;-84
2021/12/12 02:53:13;;;;;;;10.93;5.25;;;11.20;99.90;;;;;;4900298;29;20080;-84
2021/12/12 02:55:44;;;;;;;10.15;3.92;;;11.10;99.90;;;;;;4900779;29;20113;-85
2021/12/12 02:58:16;;;;;;;5.72;3.42;;;11.10;99.90;;;;;;4901136;29;20101;-84
2021/12/12 03:00:47;;;;;;;8.80;3.70;;;11.00;99.90;;;;;;4901014;29;20136;-85
2021/12/12 03:03:16;;;;;;;7.97;3.50;;;11.00;99.90;;;;;;4899893;29;20100;-85
2021/12/12 03:05:47;;;;;;;9.70;3.28;;;10.90;99.90;;;;;;4900688;29;20404;-85
2021/12/12 03:08:16;;;;;;;13.38;3.50;;;10.90;99.90;;;;;;4900565;29;20069;-85
2021/12/12 03:10:48;;;;;;;11.93;3.55;;;10.90;99.90;;;;;;4900405;29;20455;-85
2021/12/12 03:13:17;;;;;;;14.75;3.60;;;10.90;99.90;;;;;;4900687;29;20049;-85
2021/12/12 03:15:47;;;;;;;7.33;3.60;;;10.90;99.90;;;;;;4900437;29;20053;-86
2021/12/12 03:18:17;;;;;;;7.63;2.97;;;10.90;99.90;;;;;;4900710;29;20323;-85
2021/12/12 03:20:49;;;;;;;14.52;4.18;;;10.90;99.90;;;;;;4900597;29;20053;-85
2021/12/12 03:23:19;;;;;;;8.95;2.95;;;10.90;99.90;;;;;;4900287;29;20484;-85
2021/12/12 03:25:53;;;;;;;17.20;4.75;;;10.90;99.90;;;;;;4900421;29;20104;-85
2021/12/12 03:28:23;;;;;;;12.60;3.88;;;10.80;99.90;;;;;;4900355;29;20059;-85
2021/12/12 03:30:52;;;;;;;8.43;3.65;;;10.80;99.90;;;;;;4899867;29;20119;-85
2021/12/12 03:33:20;;;;;;;12.18;6.03;;;10.80;99.90;;;;;;4899886;29;20068;-85
2021/12/12 03:35:49;;;;;;;7.40;2.40;;;10.80;99.90;;;;;;4900338;29;20111;-85
2021/12/12 03:38:17;;;;;;;6.03;2.60;;;10.80;99.90;;;;;;4900173;29;20056;-84
2021/12/12 03:40:45;;;;;;;8.65;2.80;;;10.80;99.90;;;;;;4900159;29;20112;-85
2021/12/12 03:43:15;;;;;;;6.18;3.05;;;10.80;99.90;;;;;;4900157;29;20415;-85
2021/12/12 03:45:44;;;;;;;6.25;2.78;;;10.80;99.90;;;;;;4899121;29;20104;-86
2021/12/12 03:48:16;;;;;;;8.00;3.13;;;10.80;99.90;;;;;;4900138;29;20048;-85
2021/12/12 03:50:45;;;;;;;12.10;4.07;;;10.70;99.90;;;;;;4899745;29;20495;-85
2021/12/12 03:53:14;;;;;;;9.18;3.80;;;10.70;99.90;;;;;;4899596;29;20056;-85
2021/12/12 03:55:43;;;;;;;10.32;4.32;;;10.80;99.90;;;;;;4899739;29;20056;-86
2021/12/12 03:58:11;;;;;;;9.48;4.35;;;10.80;99.90;;;;;;4899816;29;20108;-86
2021/12/12 04:00:45;;;;;;;13.25;4.72;;;10.80;99.90;;;;;;4899261;29;20419;-86
2021/12/12 04:03:15;;;;;;;7.82;4.57;;;10.80;99.90;;;;;;4899271;29;20056;-85
2021/12/12 04:05:46;;;;;;;9.90;5.15;;;10.70;99.90;;;;;;4899190;29;20071;-85
2021/12/12 04:08:13;;;;;;;9.48;5.00;;;10.80;99.90;;;;;;4899067;29;20055;-85
2021/12/12 04:10:40;;;;;;;7.50;4.55;;;10.70;99.90;;;;;;4899060;29;20104;-85
2021/12/12 04:13:07;;;;;;;11.65;4.88;;;10.70;99.90;;;;;;4899452;29;20060;-86
2021/12/12 04:15:35;;;;;;;10.35;4.38;;;10.70;99.90;;;;;;4899619;29;20291;-86
2021/12/12 04:18:04;;;;;;;11.93;4.40;;;10.70;99.90;;;;;;4899821;29;20053;-85
2021/12/12 04:20:34;;;;;;;12.23;5.88;;;10.70;99.90;;;;;;4899682;29;20108;-86
2021/12/12 04:23:01;;;;;;;15.07;6.13;;;10.70;99.90;;;;;;4899041;29;20112;-86
2021/12/12 04:25:28;;;;;;;12.80;5.72;;;10.70;99.90;;;;;;4899298;29;20090;-86
2021/12/12 04:27:56;;;;;;;14.32;5.95;;;10.70;99.90;;;;;;4899022;29;20104;-85
2021/12/12 04:30:24;;;;;;;12.18;5.65;;;10.70;99.90;;;;;;4899209;29;20056;-85
2021/12/12 04:32:52;;;;;;;14.38;6.95;;;10.60;99.90;;;;;;4898931;29;20048;-86
2021/12/12 04:35:25;;;;;;;12.82;5.60;;;10.60;99.90;;;;;;4899204;29;20044;-86
2021/12/12 04:37:53;;;;;;;9.82;5.22;;;10.60;99.90;;;;;;4898931;29;20048;-86
2021/12/12 04:40:23;;;;;;;12.65;5.82;;;10.60;99.90;;;;;;4898646;29;20053;-85
2021/12/12 04:42:53;;;;;;;12.13;5.65;;;10.60;99.90;;;;;;4898621;29;20407;-85
2021/12/12 04:45:42;;;;;;;10.25;5.53;;;10.70;99.90;;;;;;4899187;29;20052;-86
2021/12/12 04:51:05;;;;;;;13.88;6.65;;;10.70;99.90;;;;;;4898489;29;20108;-86
2021/12/12 04:53:35;;;;;;;13.73;5.93;;;10.80;99.90;;;;;;4898404;29;20144;-85
2021/12/12 04:56:06;;;;;;;12.82;6.70;;;10.80;99.90;;;;;;4898742;29;20759;-85
2021/12/12 04:58:40;;;;;;;12.15;6.00;;;10.80;99.90;;;;;;4898327;29;20060;-86
2021/12/12 05:01:14;;;;;;;11.52;6.10;;;10.80;99.90;;;;;;4897865;29;20103;-86
2021/12/12 05:03:50;;;;;;;12.68;6.55;;;10.80;99.90;;;;;;4898197;29;20463;-86
2021/12/12 05:06:26;;;;;;;8.93;6.00;;;10.80;99.90;;;;;;4898466;29;20052;-85
2021/12/12 05:09:03;;;;;;;14.52;7.35;;;10.80;99.90;;;;;;4898125;29;20052;-86
2021/12/12 05:11:43;;;;;;;14.07;6.72;;;10.70;99.90;;;;;;4897218;29;20064;-85
2021/12/12 05:14:21;;;;;;;14.93;6.68;;;10.70;99.90;;;;;;4898408;29;20052;-85
2021/12/12 05:16:51;;;;;;;16.30;6.53;;;10.60;99.90;;;;;;4898021;29;20108;-85
2021/12/12 05:19:29;;;;;;;14.18;6.72;;;10.60;99.90;;;;;;4898094;29;20419;-86
2021/12/12 05:22:05;;;;;;;12.43;5.13;;;10.60;99.90;;;;;;4898036;29;20049;-85
2021/12/12 05:24:34;;;;;;;14.32;6.80;;;10.60;99.90;;;;;;4898281;29;20107;-86
2021/12/12 05:27:06;;;;;;;13.40;6.15;;;10.60;99.90;;;;;;4898408;29;20108;-85
2021/12/12 05:29:36;;;;;;;11.27;5.85;;;10.60;99.90;;;;;;4897595;29;20056;-86
2021/12/12 05:32:06;;;;;;;10.95;6.57;;;10.60;99.90;;;;;;4898040;29;20053;-85
2021/12/12 05:34:37;;;;;;;9.82;6.57;;;10.60;99.90;;;;;;4898503;29;20045;-86
2021/12/12 05:37:07;;;;;;;12.80;6.53;;;10.60;99.90;;;;;;4897190;29;20116;-85
2021/12/12 05:39:35;;;;;;;14.30;6.93;;;10.60;99.90;;;;;;4897905;29;20052;-85
2021/12/12 05:42:03;;;;;;;16.27;8.80;;;10.60;99.90;;;;;;4898005;29;20060;-86
2021/12/12 05:44:32;;;;;;;14.45;7.85;;;10.50;99.90;;;;;;4897855;29;20085;-86
2021/12/12 05:47:01;;;;;;;14.80;6.47;;;10.50;99.90;;;;;;4898058;29;20515;-85
2021/12/12 05:49:29;;;;;;;17.05;6.75;;;10.50;99.90;;;;;;4897585;29;20049;-85
2021/12/12 05:51:56;;;;;;;12.02;6.75;;;10.50;99.90;;;;;;4911418;29;20056;-85
2021/12/12 05:54:26;;;;;;;18.77;9.48;;;10.60;99.90;;;;;;4916657;29;20111;-86
2021/12/12 05:56:53;;;;;;;41.60;8.93;;;10.50;99.90;;;;;;4917026;29;20468;-85
2021/12/12 05:59:22;;;;;;;24.55;7.35;;;10.40;99.90;;;;;;4912970;29;20131;-85
2021/12/12 06:01:51;;;;;;;24.60;8.60;;;10.50;99.90;;;;;;4897661;29;20068;-86
2021/12/12 06:04:18;;;;;;;15.32;7.20;;;10.40;99.90;;;;;;4897398;29;20060;-86
2021/12/12 06:06:46;;;;;;;16.30;7.50;;;10.50;99.90;;;;;;4897809;29;20112;-85
2021/12/12 06:09:15;;;;;;;10.35;6.32;;;10.50;99.90;;;;;;4899387;29;20065;-86
2021/12/12 06:11:46;;;;;;;15.18;6.72;;;10.50;99.90;;;;;;4901436;29;20096;-85
2021/12/12 06:14:15;;;;;;;15.30;6.72;;;10.50;99.90;;;;;;4901913;29;20104;-85
2021/12/12 06:16:43;;;;;;;26.30;6.75;;;10.50;99.90;;;;;;4901366;29;20053;-86
2021/12/12 06:19:14;;;;;;;82.60;10.52;;;10.50;99.90;;;;;;4900968;29;20052;-85
2021/12/12 06:21:42;;;;;;;49.50;7.78;;;10.50;99.90;;;;;;4901002;29;20108;-86
2021/12/12 06:24:10;;;;;;;16.13;6.40;;;10.50;99.90;;;;;;4901166;29;20056;-85
2021/12/12 06:26:38;;;;;;;18.33;5.90;;;10.40;99.90;;;;;;4901375;29;20108;-85
2021/12/12 06:29:08;;;;;;;10.07;5.30;;;10.40;99.90;;;;;;4901155;29;20085;-85
2021/12/12 06:31:37;;;;;;;10.23;4.18;;;10.40;99.90;;;;;;4901505;29;20121;-85
2021/12/12 06:34:04;;;;;;;;;;;10.40;99.90;;;;;;4901382;29;20093;-85
2021/12/12 06:36:33;;;;;;;26.23;6.57;;;10.40;99.90;;;;;;4901273;29;19958;-85
2021/12/12 06:39:00;;;;;;;;;;;10.40;99.90;;;;;;4901636;29;20484;-85
2021/12/12 06:41:27;;;;;;;23.65;8.82;;;10.40;99.90;;;;;;4901329;29;20004;-85
2021/12/12 06:43:56;;;;;;;19.15;8.13;;;10.40;99.90;;;;;;4900988;29;20084;-85
2021/12/12 06:46:25;;;;;;;17.17;6.97;;;10.40;99.90;;;;;;4901324;29;20080;-85
2021/12/12 06:48:52;;;;;;;;;;;10.40;99.90;;;;;;4901557;29;20051;-86
2021/12/12 06:51:20;;;;;;;11.35;6.07;;;10.50;99.90;;;;;;4900910;29;19923;-85
2021/12/12 06:53:47;;;;;;;11.32;5.68;;;10.60;99.90;;;;;;4900807;29;20053;-86
2021/12/12 06:56:17;;;;;;;31.67;6.55;;;10.50;99.90;;;;;;4900869;29;20057;-86
2021/12/12 06:58:45;;;;;;;176.00;13.02;;;10.50;99.90;;;;;;4900991;29;20072;-85
2021/12/12 07:01:16;;;;;;;120.00;12.45;;;10.40;99.90;;;;;;4902163;29;20048;-85
2021/12/12 07:03:46;;;;;;;24.33;8.70;;;10.40;99.90;;;;;;4900987;29;20088;-86
2021/12/12 07:06:13;;;;;;;22.48;8.02;;;10.40;99.90;;;;;;4900655;29;20572;-86
2021/12/12 07:08:41;;;;;;;19.77;9.02;;;10.40;99.90;;;;;;4900507;29;20044;-86
2021/12/12 07:11:08;;;;;;;61.40;13.15;;;10.50;99.90;;;;;;4900756;29;20124;-86
2021/12/12 07:13:36;;;;;;;109.03;16.60;;;10.50;99.90;;;;;;4900762;29;20151;-86
2021/12/12 07:16:05;;;;;;;34.35;10.60;;;10.50;99.90;;;;;;4900471;29;20053;-86
2021/12/12 07:18:35;;;;;;;19.52;9.07;;;10.50;99.90;;;;;;4900585;29;20420;-86
2021/12/12 07:21:07;;;;;;;23.02;9.23;;;10.50;99.90;;;;;;4900382;29;20060;-86
2021/12/12 07:23:35;;;;;;;20.77;9.27;;;10.50;99.90;;;;;;4900527;29;20114;-85
2021/12/12 07:26:05;;;;;;;51.97;10.87;;;10.50;99.90;;;;;;4900717;29;20060;-86
2021/12/12 07:28:33;;;;;;;99.13;13.23;;;10.60;99.90;;;;;;4900362;29;20052;-86
2021/12/12 07:31:03;;;;;;;102.55;12.20;;;9.40;99.90;;;;;;4900635;29;20112;-85
2021/12/12 07:33:31;;;;;;;47.30;10.38;;;10.40;99.90;;;;;;4900028;29;20052;-86
2021/12/12 07:36:00;;;;;;;50.45;11.65;;;10.40;99.90;;;;;;4899833;29;20415;-85
2021/12/12 07:38:30;;;;;;;39.03;12.18;;;10.60;99.90;;;;;;4900197;29;20139;-85
2021/12/12 07:40:58;;;;;;;125.07;16.85;;;10.50;99.90;;;;;;4900426;29;20445;-86
2021/12/12 07:43:27;;;;;;;56.13;13.90;;;10.40;99.90;;;;;;4899921;29;20534;-85
2021/12/12 07:45:54;;;;;;;34.85;13.88;;;10.40;99.90;;;;;;4900293;29;20048;-85
2021/12/12 07:48:21;;;;;;;52.63;13.68;;;10.40;99.90;;;;;;4900217;29;20052;-85
2021/12/12 07:50:50;;;;;;;39.05;12.48;;;10.60;99.90;;;;;;4894585;29;20118;-85
2021/12/12 07:53:18;;;;;;;44.08;13.77;;;10.50;99.90;;;;;;4881543;29;20048;-86
2021/12/12 07:55:48;;;;;;;40.47;13.60;;;10.50;99.90;;;;;;4881096;29;20053;-85
2021/12/12 07:58:17;;;;;;;41.92;13.57;;;10.50;99.90;;;;;;4881132;29;20300;-85
2021/12/12 08:00:47;;;;;;;69.57;16.63;;;10.50;99.90;;;;;;4880999;29;20060;-86
2021/12/12 08:03:17;;;;;;;161.57;22.17;;;10.50;99.90;;;;;;4881290;29;20060;-86
2021/12/12 08:05:45;;;;;;;113.72;18.35;;;10.50;99.90;;;;;;4882004;29;20053;-85
2021/12/12 08:08:13;;;;;;;50.22;16.33;;;10.40;99.90;;;;;;4881624;29;20052;-86
2021/12/12 08:10:43;;;;;;;43.40;15.15;;;10.50;99.90;;;;;;4881176;29;20053;-85
2021/12/12 08:13:14;;;;;;;47.38;14.65;;;10.60;99.90;;;;;;4880574;29;20504;-85
2021/12/12 08:15:42;;;;;;;63.67;17.58;;;10.60;99.90;;;;;;4880841;29;20410;-86
2021/12/12 08:18:12;;;;;;;46.53;15.88;;;10.60;99.90;;;;;;4880624;29;20076;-86
2021/12/12 08:20:40;;;;;;;44.03;15.18;;;10.50;99.90;;;;;;4880950;29;20057;-85
2021/12/12 08:23:08;;;;;;;43.03;14.65;;;10.50;99.90;;;;;;4880509;29;20056;-86
2021/12/12 08:25:36;;;;;;;50.22;14.95;;;10.50;99.90;;;;;;4880686;29;20056;-85
2021/12/12 08:28:06;;;;;;;40.80;15.10;;;10.50;99.90;;;;;;4880294;29;20057;-85
2021/12/12 08:30:36;;;;;;;40.17;16.10;;;10.60;99.90;;;;;;4880209;29;20077;-86
2021/12/12 08:33:06;;;;;;;37.92;14.40;;;10.60;99.90;;;;;;4879884;29;20060;-86
2021/12/12 08:35:35;;;;;;;30.13;11.80;;;10.60;99.90;;;;;;4879882;29;20500;-86
2021/12/12 08:38:05;;;;;;;32.22;12.85;;;10.70;99.90;;;;;;4880112;29;20118;-86
2021/12/12 08:40:38;;;;;;;29.17;11.55;;;10.60;99.90;;;;;;4879836;29;20057;-86
2021/12/12 08:43:09;;;;;;;26.05;11.40;;;10.60;99.90;;;;;;4880311;29;20101;-86
2021/12/12 08:45:41;;;;;;;27.92;11.13;;;10.70;99.90;;;;;;4880985;29;20101;-86
2021/12/12 08:48:09;;;;;;;21.70;9.77;;;10.70;99.90;;;;;;4880441;29;20491;-86
2021/12/12 08:50:38;;;;;;;21.55;9.50;;;10.80;99.90;;;;;;4883416;29;20060;-86
2021/12/12 08:53:07;;;;;;;21.63;8.98;;;10.80;99.90;;;;;;4898744;29;20052;-86
2021/12/12 08:55:36;;;;;;;;;;;10.80;99.90;;;;;;4899615;29;20053;-86
2021/12/12 08:58:15;;;;;;;12.23;4.68;;;10.90;99.90;;;;;;4898704;29;19958;-86
2021/12/12 09:00:47;;;;;;;8.23;3.70;;;11.10;99.90;;;;;;4898809;29;20049;-86
2021/12/12 09:03:19;;;;;;;5.65;2.13;;;11.10;99.90;;;;;;4899460;29;20392;-86
2021/12/12 09:05:47;;;;;;;6.13;2.03;;;11.30;99.90;;;;;;4899390;29;20056;-86
2021/12/12 09:08:18;;;;;;;4.53;1.75;;;11.40;99.90;;;;;;4898509;29;20464;-86
2021/12/12 09:10:52;;;;;;;4.18;1.30;;;11.40;99.90;;;;;;4898294;29;20112;-86
2021/12/12 09:13:22;;;;;;;1.98;1.05;;;11.50;99.90;;;;;;4898573;29;20048;-86
2021/12/12 09:15:56;;;;;;;2.17;1.00;;;11.60;99.90;;;;;;4898536;29;20388;-84
2021/12/12 09:18:29;;;;;;;6.53;1.63;;;11.80;99.90;;;;;;4899116;29;20059;-86
2021/12/12 09:21:05;;;;;;;3.85;1.00;;;11.80;99.90;;;;;;4898923;29;20068;-86
2021/12/12 09:23:38;;;;;;;4.10;1.20;;;11.80;99.90;;;;;;4898960;29;20052;-85
2021/12/12 09:26:08;;;;;;;7.47;1.75;;;12.20;99.90;;;;;;4898607;29;20064;-86
2021/12/12 09:28:43;;;;;;;5.32;1.05;;;11.90;99.90;;;;;;4898791;29;20049;-85
2021/12/12 09:31:14;;;;;;;4.50;1.33;;;11.90;99.90;;;;;;4898162;29;20045;-85
2021/12/12 09:33:47;;;;;;;1.88;0.90;;;11.90;99.90;;;;;;4872531;29;20492;-86
2021/12/12 09:36:18;;;;;;;3.55;1.33;;;11.90;99.90;;;;;;4880369;29;20048;-84
2021/12/12 09:38:50;;;;;;;2.13;1.10;;;11.90;99.90;;;;;;4880075;29;20057;-84
2021/12/12 09:41:33;;;;;;;6.85;1.25;;;12.00;99.90;;;;;;4879587;29;20057;-85
2021/12/12 09:44:28;;;;;;;4.00;1.02;;;12.00;99.90;;;;;;4882821;29;20053;-85
2021/12/12 09:47:28;;;;;;;3.03;1.05;;;12.00;99.90;;;;;;4883523;29;20053;-86
2021/12/12 09:53:29;;;;;;;5.55;1.13;;;12.00;99.90;;;;;;4883300;29;20064;-86
2021/12/12 09:56:05;;;;;;;1.30;0.73;;;12.10;99.90;;;;;;4883603;29;20061;-86
2021/12/12 09:58:44;;;;;;;5.50;1.73;;;12.10;99.90;;;;;;4884473;29;20140;-86
2021/12/12 10:01:18;;;;;;;3.95;1.17;;;12.10;99.90;;;;;;4902203;29;20104;-86
2021/12/12 10:04:12;;;;;;;5.80;1.90;;;12.10;99.90;;;;;;4903198;29;20052;-85
2021/12/12 10:06:49;;;;;;;8.45;1.60;;;12.10;99.90;;;;;;4891572;29;20103;-87
2021/12/12 10:09:21;;;;;;;2.30;1.50;;;12.40;99.90;;;;;;4901701;29;20053;-86
2021/12/12 10:11:58;;;;;;;3.85;1.20;;;12.20;99.90;;;;;;4902038;29;20060;-86
2021/12/12 10:14:35;;;;;;;1.98;0.90;;;12.30;99.90;;;;;;4903123;29;20049;-85
2021/12/12 10:17:10;;;;;;;3.17;1.20;;;12.40;99.90;;;;;;4901634;29;20048;-84
2021/12/12 10:19:48;;;;;;;2.38;1.00;;;12.40;99.90;;;;;;4901962;29;20060;-86
2021/12/12 10:22:25;;;;;;;4.28;1.05;;;12.40;99.90;;;;;;4901733;29;20053;-86
2021/12/12 10:25:00;;;;;;;2.20;0.75;;;12.40;99.90;;;;;;4901704;29;20067;-86
2021/12/12 10:27:33;;;;;;;3.70;0.90;;;12.60;99.90;;;;;;4901567;29;20057;-86
2021/12/12 10:30:10;;;;;;;2.33;0.80;;;12.60;99.90;;;;;;4901346;29;20053;-86
2021/12/12 10:32:47;;;;;;;2.55;0.90;;;12.50;99.90;;;;;;4894036;29;20068;-86
2021/12/12 10:35:20;;;;;;;2.50;1.40;;;12.60;99.90;;;;;;4902367;29;20079;-85
2021/12/12 10:37:54;;;;;;;4.13;1.00;;;12.60;99.90;;;;;;4901194;29;20135;-86
2021/12/12 10:40:26;;;;;;;3.10;0.90;;;12.70;99.90;;;;;;4901345;29;20053;-86
2021/12/12 10:42:58;;;;;;;2.75;0.50;;;12.90;99.90;;;;;;4901412;29;20131;-86
2021/12/12 10:45:29;;;;;;;2.28;0.65;;;12.80;99.90;;;;;;4901181;29;20052;-85
2021/12/12 10:48:00;;;;;;;2.85;0.98;;;12.80;99.90;;;;;;4901755;29;20068;-85
2021/12/12 10:50:42;;;;;;;1.85;0.50;;;12.80;99.90;;;;;;4900703;29;20474;-86
2021/12/12 10:53:22;;;;;;;1.35;0.55;;;12.80;99.90;;;;;;4900714;29;20057;-86
2021/12/12 10:55:56;;;;;;;1.33;0.90;;;12.90;99.90;;;;;;4894737;29;20076;-87
2021/12/12 10:58:27;;;;;;;3.15;0.88;;;12.90;99.90;;;;;;4900815;29;20057;-85
2021/12/12 11:00:58;;;;;;;3.75;0.90;;;13.10;99.90;;;;;;4900804;29;20052;-86
2021/12/12 11:03:30;;;;;;;4.10;0.80;;;13.00;99.90;;;;;;4900776;29;20056;-85
2021/12/12 11:06:04;;;;;;;1.63;0.73;;;12.90;99.90;;;;;;4901500;29;20053;-85
2021/12/12 11:08:37;;;;;;;3.65;0.82;;;12.90;99.90;;;;;;4902948;29;20057;-85
2021/12/12 11:11:13;;;;;;;2.92;0.70;;;13.00;99.90;;;;;;4900679;29;20056;-85
2021/12/12 11:13:46;;;;;;;2.78;0.80;;;13.00;99.90;;;;;;4901745;29;20059;-86
2021/12/12 11:16:19;;;;;;;2.15;0.70;;;13.00;99.90;;;;;;4900707;29;20045;-86
2021/12/12 11:18:49;;;;;;;2.10;1.00;;;13.30;99.90;;;;;;4900801;29;20511;-85
2021/12/12 11:21:24;;;;;;;2.13;0.80;;;13.00;99.90;;;;;;4900491;29;20062;-85
2021/12/12 11:23:56;;;;;;;2.65;1.23;;;12.90;99.90;;;;;;4901089;29;20060;-86
2021/12/12 11:26:34;;;;;;;1.95;0.88;;;13.00;99.90;;;;;;4902394;29;20072;-86
2021/12/12 11:29:04;;;;;;;3.13;1.00;;;13.00;99.90;;;;;;4900634;29;20052;-86
2021/12/12 11:31:35;;;;;;;5.47;1.27;;;13.30;99.90;;;;;;4900667;29;20160;-86
2021/12/12 11:34:05;;;;;;;3.10;1.23;;;13.10;99.90;;;;;;4899548;29;20423;-87
2021/12/12 11:36:50;;;;;;;4.43;1.20;;;13.10;99.90;;;;;;4902837;29;20495;-87
2021/12/12 11:39:22;;;;;;;4.45;1.70;;;13.10;99.90;;;;;;4899930;29;20125;-86
2021/12/12 11:42:01;;;;;;;3.28;0.93;;;13.30;99.90;;;;;;4900946;29;20158;-87
2021/12/12 11:44:32;;;;;;;2.50;1.00;;;13.10;99.90;;;;;;4900019;29;20059;-86
2021/12/12 11:47:09;;;;;;;4.93;1.45;;;13.30;99.90;;;;;;4900021;29;20056;-86
2021/12/12 11:49:50;;;;;;;4.80;1.17;;;13.20;99.90;;;;;;4900653;29;20499;-87
2021/12/12 11:52:39;;;;;;;3.58;1.92;;;13.40;99.90;;;;;;4900039;29;20053;-86
2021/12/12 11:55:12;;;;;;;4.28;1.35;;;12.90;99.90;;;;;;4900408;29;20063;-87
2021/12/12 11:57:49;;;;;;;6.47;1.00;;;13.30;99.90;;;;;;4901144;29;20156;-87
2021/12/12 12:00:22;;;;;;;3.70;1.25;;;13.60;99.90;;;;;;4902371;29;20044;-86
2021/12/12 12:03:27;;;;;;;2.95;0.60;;;13.70;99.90;;;;;;4899686;29;20049;-86
2021/12/12 12:06:08;;;;;;;5.65;0.98;;;12.10;99.90;;;;;;4899319;29;20056;-87
2021/12/12 12:08:55;;;;;;;2.92;0.80;;;13.70;99.90;;;;;;4898784;29;20174;-86
2021/12/12 12:11:33;;;;;;;1.95;0.70;;;14.00;99.90;;;;;;4899287;29;20060;-87
2021/12/12 12:17:08;;;;;;;5.45;1.17;;;14.40;99.90;;;;;;4892918;29;20499;-86
2021/12/12 12:19:59;;;;;;;7.75;2.13;;;15.00;99.90;;;;;;4899667;29;20056;-87
2021/12/12 12:22:34;;;;;;;5.65;1.60;;;13.40;99.90;;;;;;4899311;29;20049;-86
2021/12/12 12:25:40;;;;;;;3.25;1.48;;;14.00;99.90;;;;;;4900806;29;20052;-88
2021/12/12 12:28:13;;;;;;;3.42;1.42;;;14.00;99.90;;;;;;4899895;29;20509;-87
2021/12/12 12:31:40;;;;;;;6.65;2.20;;;14.70;99.90;;;;;;4899569;29;20048;-87
2021/12/12 12:34:44;;;;;;;11.07;2.40;;;14.00;99.90;;;;;;4899154;29;20051;-87
2021/12/12 12:37:57;;;;;;;8.13;2.65;;;13.30;99.90;;;;;;4899331;29;20411;-87
2021/12/12 12:41:18;;;;;;;8.32;2.80;;;13.80;99.90;;;;;;4898815;29;20147;-87
2021/12/12 12:47:52;;;;;;;7.63;2.33;;;14.20;99.90;;;;;;4849839;29;20060;-86
2021/12/12 12:50:52;;;;;;;5.97;1.88;;;14.10;99.90;;;;;;4899570;29;20067;-87
2021/12/12 12:53:55;;;;;;;5.60;1.30;;;14.50;99.90;;;;;;4899449;29;20059;-87
2021/12/12 12:56:59;;;;;;;11.07;6.93;;;13.80;99.90;;;;;;4880291;29;20149;-85
2021/12/12 13:00:06;;;;;;;5.93;1.88;;;14.20;99.90;;;;;;4898693;29;20051;-86
2021/12/12 13:03:02;;;;;;;13.20;2.00;;;14.30;99.90;;;;;;4898208;29;20057;-87
2021/12/12 13:06:08;;;;;;;5.53;1.85;;;14.80;99.90;;;;;;4898557;29;20061;-87
2021/12/12 13:09:11;;;;;;;6.13;2.20;;;14.60;99.90;;;;;;4898489;29;20049;-86
2021/12/12 13:11:49;;;;;;;8.95;3.67;;;14.50;99.90;;;;;;4900221;29;20057;-87
2021/12/12 13:14:30;;;;;;;4.60;1.52;;;14.40;99.90;;;;;;4899200;29;20058;-86
2021/12/12 13:17:09;;;;;;;5.60;1.42;;;13.50;99.90;;;;;;4899313;29;20044;-86
2021/12/12 13:20:06;;;;;;;4.35;1.20;;;14.50;99.90;;;;;;4890754;29;20059;-87
2021/12/12 13:22:45;;;;;;;7.32;1.83;;;14.50;99.90;;;;;;4898259;29;20049;-87
2021/12/12 13:25:20;;;;;;;11.02;2.50;;;14.70;99.90;;;;;;4898134;29;20049;-87
2021/12/12 13:28:07;;;;;;;11.00;1.58;;;13.10;99.90;;;;;;4898430;29;20060;-87
2021/12/12 13:30:47;;;;;;;6.30;1.75;;;15.40;99.90;;;;;;4898728;29;20052;-87
2021/12/12 13:33:32;;;;;;;8.77;1.45;;;14.30;99.90;;;;;;4898637;29;20055;-87
2021/12/12 13:36:17;;;;;;;1.83;0.80;;;14.10;99.90;;;;;;4914569;29;20098;-87
2021/12/12 13:39:07;;;;;;;4.20;1.20;;;14.20;99.90;;;;;;4912324;29;20056;-87